Terminal Aerodrome Forecast
Issued by NWS Jacksonville, FL

Home | Current Version | Previous Version | Text Only | Print | Product List | Glossary On
Versions: 1 2 3 4 5 6 7 8 9 10 11 12 13 14 15 16 17 18 19 20 21 22 23 24 25 26 27 28 29 30 31 32
689
FTUS42 KJAX 162320
TAFGNV
TAF
KGNV 162320Z 1700/1724 12003KT P6SM SCT250
     FM170600 00000KT 3SM BR SCT003
     FM170900 00000KT 1SM BR BKN002
     FM171400 17006KT P6SM SCT015 SCT250
     FM172000 21006KT P6SM SCT040 SCT250=

USA.gov is the U.S. government's official web portal to all federal, state and local government web resources and services.